sensor_id;sensor_type;location;lat;lon;timestamp;P1;durP1;ratioP1;P2;durP2;ratioP2
38435;SDS011;24220;48.168;14.024;2023-04-25T00:02:03;3.30;;;1.73;;
38435;SDS011;24220;48.168;14.024;2023-04-25T00:04:30;2.05;;;1.90;;
38435;SDS011;24220;48.168;14.024;2023-04-25T00:07:00;2.15;;;1.67;;
38435;SDS011;24220;48.168;14.024;2023-04-25T00:09:31;2.30;;;1.70;;
38435;SDS011;24220;48.168;14.024;2023-04-25T00:11:58;1.70;;;1.60;;
38435;SDS011;24220;48.168;14.024;2023-04-25T00:14:28;2.00;;;1.80;;
38435;SDS011;24220;48.168;14.024;2023-04-25T00:16:56;3.30;;;1.67;;
38435;SDS011;24220;48.168;14.024;2023-04-25T00:19:26;2.80;;;1.50;;
38435;SDS011;24220;48.168;14.024;2023-04-25T00:21:55;3.97;;;1.88;;
38435;SDS011;24220;48.168;14.024;2023-04-25T00:24:25;2.10;;;1.88;;
38435;SDS011;24220;48.168;14.024;2023-04-25T00:26:52;5.15;;;2.05;;
38435;SDS011;24220;48.168;14.024;2023-04-25T00:29:19;2.28;;;1.80;;
38435;SDS011;24220;48.168;14.024;2023-04-25T00:31:47;2.10;;;2.00;;
38435;SDS011;24220;48.168;14.024;2023-04-25T00:37:05;2.63;;;2.15;;
38435;SDS011;24220;48.168;14.024;2023-04-25T00:39:32;3.70;;;2.00;;
38435;SDS011;24220;48.168;14.024;2023-04-25T00:42:00;2.47;;;1.92;;
38435;SDS011;24220;48.168;14.024;2023-04-25T00:44:30;2.20;;;1.90;;
38435;SDS011;24220;48.168;14.024;2023-04-25T00:46:59;3.65;;;1.90;;
38435;SDS011;24220;48.168;14.024;2023-04-25T00:49:31;2.22;;;2.00;;
38435;SDS011;24220;48.168;14.024;2023-04-25T00:51:58;2.25;;;2.00;;
38435;SDS011;24220;48.168;14.024;2023-04-25T00:54:25;3.10;;;2.10;;
38435;SDS011;24220;48.168;14.024;2023-04-25T00:56:56;2.83;;;2.08;;
38435;SDS011;24220;48.168;14.024;2023-04-25T00:59:27;3.30;;;1.90;;
38435;SDS011;24220;48.168;14.024;2023-04-25T01:01:56;2.53;;;2.13;;
38435;SDS011;24220;48.168;14.024;2023-04-25T01:04:25;3.40;;;2.20;;
38435;SDS011;24220;48.168;14.024;2023-04-25T01:06:54;1.90;;;1.80;;
38435;SDS011;24220;48.168;14.024;2023-04-25T01:09:24;1.92;;;1.73;;
38435;SDS011;24220;48.168;14.024;2023-04-25T01:11:52;4.82;;;2.10;;
38435;SDS011;24220;48.168;14.024;2023-04-25T01:14:19;2.80;;;2.53;;
38435;SDS011;24220;48.168;14.024;2023-04-25T01:16:49;2.58;;;2.38;;
38435;SDS011;24220;48.168;14.024;2023-04-25T01:19:17;2.83;;;2.28;;
38435;SDS011;24220;48.168;14.024;2023-04-25T01:21:47;2.85;;;2.22;;
38435;SDS011;24220;48.168;14.024;2023-04-25T01:24:15;3.45;;;2.25;;
38435;SDS011;24220;48.168;14.024;2023-04-25T01:26:45;3.90;;;2.20;;
38435;SDS011;24220;48.168;14.024;2023-04-25T01:29:17;3.35;;;2.50;;
38435;SDS011;24220;48.168;14.024;2023-04-25T01:31:45;4.18;;;3.03;;
38435;SDS011;24220;48.168;14.024;2023-04-25T01:34:13;3.90;;;3.20;;
38435;SDS011;24220;48.168;14.024;2023-04-25T01:36:40;2.92;;;2.58;;
38435;SDS011;24220;48.168;14.024;2023-04-25T01:39:10;3.97;;;2.45;;
38435;SDS011;24220;48.168;14.024;2023-04-25T01:41:38;2.10;;;1.95;;
38435;SDS011;24220;48.168;14.024;2023-04-25T01:44:06;3.70;;;2.50;;
38435;SDS011;24220;48.168;14.024;2023-04-25T01:46:33;2.92;;;2.65;;
38435;SDS011;24220;48.168;14.024;2023-04-25T01:49:01;3.10;;;2.20;;
38435;SDS011;24220;48.168;14.024;2023-04-25T01:51:29;4.07;;;2.40;;
38435;SDS011;24220;48.168;14.024;2023-04-25T01:53:58;2.83;;;2.45;;
38435;SDS011;24220;48.168;14.024;2023-04-25T01:56:29;5.45;;;2.53;;
38435;SDS011;24220;48.168;14.024;2023-04-25T01:58:58;4.45;;;2.63;;
38435;SDS011;24220;48.168;14.024;2023-04-25T02:01:26;4.35;;;2.75;;
38435;SDS011;24220;48.168;14.024;2023-04-25T02:03:55;3.22;;;2.40;;
38435;SDS011;24220;48.168;14.024;2023-04-25T02:06:23;2.83;;;2.33;;
38435;SDS011;24220;48.168;14.024;2023-04-25T02:08:51;2.80;;;2.30;;
38435;SDS011;24220;48.168;14.024;2023-04-25T02:11:20;3.53;;;2.30;;
38435;SDS011;24220;48.168;14.024;2023-04-25T02:13:48;3.40;;;2.70;;
38435;SDS011;24220;48.168;14.024;2023-04-25T02:16:15;4.07;;;2.80;;
38435;SDS011;24220;48.168;14.024;2023-04-25T02:18:43;4.95;;;2.67;;
38435;SDS011;24220;48.168;14.024;2023-04-25T02:21:11;3.63;;;2.70;;
38435;SDS011;24220;48.168;14.024;2023-04-25T02:23:41;4.80;;;3.05;;
38435;SDS011;24220;48.168;14.024;2023-04-25T02:26:08;5.28;;;2.65;;
38435;SDS011;24220;48.168;14.024;2023-04-25T02:28:39;2.67;;;2.40;;
38435;SDS011;24220;48.168;14.024;2023-04-25T02:31:09;3.50;;;2.30;;
38435;SDS011;24220;48.168;14.024;2023-04-25T02:33:36;3.67;;;2.30;;
38435;SDS011;24220;48.168;14.024;2023-04-25T02:36:04;3.42;;;2.70;;
38435;SDS011;24220;48.168;14.024;2023-04-25T02:38:31;4.40;;;2.28;;
38435;SDS011;24220;48.168;14.024;2023-04-25T02:41:03;3.80;;;2.30;;
38435;SDS011;24220;48.168;14.024;2023-04-25T02:43:33;2.92;;;2.47;;
38435;SDS011;24220;48.168;14.024;2023-04-25T02:46:00;4.82;;;2.45;;
38435;SDS011;24220;48.168;14.024;2023-04-25T02:48:30;5.03;;;1.98;;
38435;SDS011;24220;48.168;14.024;2023-04-25T02:51:00;2.97;;;2.20;;
38435;SDS011;24220;48.168;14.024;2023-04-25T02:53:27;2.22;;;1.98;;
38435;SDS011;24220;48.168;14.024;2023-04-25T02:55:54;3.58;;;2.38;;
38435;SDS011;24220;48.168;14.024;2023-04-25T02:58:25;4.93;;;2.17;;
38435;SDS011;24220;48.168;14.024;2023-04-25T03:00:55;3.90;;;2.10;;
38435;SDS011;24220;48.168;14.024;2023-04-25T03:03:23;3.85;;;2.75;;
38435;SDS011;24220;48.168;14.024;2023-04-25T03:05:51;2.97;;;2.60;;
38435;SDS011;24220;48.168;14.024;2023-04-25T03:08:19;4.00;;;2.50;;
38435;SDS011;24220;48.168;14.024;2023-04-25T03:10:46;2.53;;;2.30;;
38435;SDS011;24220;48.168;14.024;2023-04-25T03:13:14;3.47;;;2.38;;
38435;SDS011;24220;48.168;14.024;2023-04-25T03:15:43;4.57;;;2.25;;
38435;SDS011;24220;48.168;14.024;2023-04-25T03:18:10;2.40;;;2.13;;
38435;SDS011;24220;48.168;14.024;2023-04-25T03:20:42;2.42;;;2.22;;
38435;SDS011;24220;48.168;14.024;2023-04-25T03:23:10;2.65;;;2.45;;
38435;SDS011;24220;48.168;14.024;2023-04-25T03:25:39;2.95;;;2.63;;
38435;SDS011;24220;48.168;14.024;2023-04-25T03:28:07;3.38;;;2.35;;
38435;SDS011;24220;48.168;14.024;2023-04-25T03:30:34;2.65;;;2.45;;
38435;SDS011;24220;48.168;14.024;2023-04-25T03:33:01;4.45;;;3.17;;
38435;SDS011;24220;48.168;14.024;2023-04-25T03:35:32;2.60;;;2.30;;
38435;SDS011;24220;48.168;14.024;2023-04-25T03:37:59;3.30;;;2.50;;
38435;SDS011;24220;48.168;14.024;2023-04-25T03:40:26;2.47;;;2.17;;
38435;SDS011;24220;48.168;14.024;2023-04-25T03:42:54;4.35;;;2.50;;
38435;SDS011;24220;48.168;14.024;2023-04-25T03:45:21;4.88;;;3.13;;
38435;SDS011;24220;48.168;14.024;2023-04-25T03:47:49;4.45;;;3.30;;
38435;SDS011;24220;48.168;14.024;2023-04-25T03:50:16;4.50;;;3.30;;
38435;SDS011;24220;48.168;14.024;2023-04-25T03:52:44;3.58;;;2.75;;
38435;SDS011;24220;48.168;14.024;2023-04-25T03:55:13;3.42;;;2.80;;
38435;SDS011;24220;48.168;14.024;2023-04-25T03:57:41;3.85;;;2.97;;
38435;SDS011;24220;48.168;14.024;2023-04-25T04:00:11;3.38;;;2.45;;
38435;SDS011;24220;48.168;14.024;2023-04-25T04:02:38;3.80;;;2.80;;
38435;SDS011;24220;48.168;14.024;2023-04-25T04:05:08;6.32;;;4.57;;
38435;SDS011;24220;48.168;14.024;2023-04-25T04:07:36;5.70;;;3.58;;
38435;SDS011;24220;48.168;14.024;2023-04-25T04:10:07;3.53;;;2.90;;
38435;SDS011;24220;48.168;14.024;2023-04-25T04:12:34;3.67;;;2.70;;
38435;SDS011;24220;48.168;14.024;2023-04-25T04:15:02;3.50;;;2.72;;
38435;SDS011;24220;48.168;14.024;2023-04-25T04:23:32;3.40;;;3.10;;
38435;SDS011;24220;48.168;14.024;2023-04-25T04:26:05;6.20;;;3.58;;
38435;SDS011;24220;48.168;14.024;2023-04-25T04:28:33;5.38;;;3.40;;
38435;SDS011;24220;48.168;14.024;2023-04-25T04:31:02;4.35;;;3.55;;
38435;SDS011;24220;48.168;14.024;2023-04-25T04:33:30;3.67;;;3.33;;
38435;SDS011;24220;48.168;14.024;2023-04-25T04:35:58;4.68;;;3.50;;
38435;SDS011;24220;48.168;14.024;2023-04-25T04:38:30;3.85;;;3.10;;
38435;SDS011;24220;48.168;14.024;2023-04-25T04:40:59;4.60;;;3.03;;
38435;SDS011;24220;48.168;14.024;2023-04-25T04:43:27;4.90;;;3.40;;
38435;SDS011;24220;48.168;14.024;2023-04-25T04:45:57;3.35;;;3.03;;
38435;SDS011;24220;48.168;14.024;2023-04-25T04:50:59;4.85;;;3.03;;
38435;SDS011;24220;48.168;14.024;2023-04-25T04:53:27;5.75;;;3.20;;
38435;SDS011;24220;48.168;14.024;2023-04-25T04:55:54;4.10;;;3.17;;
38435;SDS011;24220;48.168;14.024;2023-04-25T04:58:24;3.20;;;2.90;;
38435;SDS011;24220;48.168;14.024;2023-04-25T05:00:56;3.40;;;2.80;;
38435;SDS011;24220;48.168;14.024;2023-04-25T05:07:06;4.00;;;3.20;;
38435;SDS011;24220;48.168;14.024;2023-04-25T05:09:33;4.40;;;3.10;;
38435;SDS011;24220;48.168;14.024;2023-04-25T05:12:03;3.65;;;3.03;;
38435;SDS011;24220;48.168;14.024;2023-04-25T05:14:30;3.80;;;3.10;;
38435;SDS011;24220;48.168;14.024;2023-04-25T05:17:01;6.17;;;3.20;;
38435;SDS011;24220;48.168;14.024;2023-04-25T05:19:31;4.78;;;3.33;;
38435;SDS011;24220;48.168;14.024;2023-04-25T05:21:59;4.03;;;3.33;;
38435;SDS011;24220;48.168;14.024;2023-04-25T05:24:26;3.40;;;3.10;;
38435;SDS011;24220;48.168;14.024;2023-04-25T05:26:53;8.60;;;3.70;;
38435;SDS011;24220;48.168;14.024;2023-04-25T05:29:21;4.93;;;3.22;;
38435;SDS011;24220;48.168;14.024;2023-04-25T05:31:48;4.28;;;3.42;;
38435;SDS011;24220;48.168;14.024;2023-04-25T05:34:15;6.72;;;3.72;;
38435;SDS011;24220;48.168;14.024;2023-04-25T05:36:45;3.80;;;3.40;;
38435;SDS011;24220;48.168;14.024;2023-04-25T05:39:15;4.53;;;3.47;;
38435;SDS011;24220;48.168;14.024;2023-04-25T05:41:43;5.03;;;3.50;;
38435;SDS011;24220;48.168;14.024;2023-04-25T05:44:11;7.03;;;3.40;;
38435;SDS011;24220;48.168;14.024;2023-04-25T05:46:42;4.45;;;3.50;;
38435;SDS011;24220;48.168;14.024;2023-04-25T05:49:10;3.30;;;3.00;;
38435;SDS011;24220;48.168;14.024;2023-04-25T05:51:37;3.97;;;3.40;;
38435;SDS011;24220;48.168;14.024;2023-04-25T05:54:04;5.40;;;3.20;;
38435;SDS011;24220;48.168;14.024;2023-04-25T05:56:32;4.72;;;3.25;;
38435;SDS011;24220;48.168;14.024;2023-04-25T05:59:01;4.95;;;3.67;;
38435;SDS011;24220;48.168;14.024;2023-04-25T06:01:29;4.35;;;3.38;;
38435;SDS011;24220;48.168;14.024;2023-04-25T06:03:59;6.35;;;3.50;;
38435;SDS011;24220;48.168;14.024;2023-04-25T06:06:26;5.30;;;3.55;;
38435;SDS011;24220;48.168;14.024;2023-04-25T06:08:54;4.53;;;3.38;;
38435;SDS011;24220;48.168;14.024;2023-04-25T06:11:22;7.15;;;3.22;;
38435;SDS011;24220;48.168;14.024;2023-04-25T06:13:49;4.97;;;3.22;;
38435;SDS011;24220;48.168;14.024;2023-04-25T06:16:19;4.75;;;3.35;;
38435;SDS011;24220;48.168;14.024;2023-04-25T06:18:47;4.95;;;3.67;;
38435;SDS011;24220;48.168;14.024;2023-04-25T06:21:14;4.15;;;3.75;;
38435;SDS011;24220;48.168;14.024;2023-04-25T06:23:44;4.95;;;4.20;;
38435;SDS011;24220;48.168;14.024;2023-04-25T06:26:12;4.50;;;3.47;;
38435;SDS011;24220;48.168;14.024;2023-04-25T06:28:39;5.05;;;3.38;;
38435;SDS011;24220;48.168;14.024;2023-04-25T06:31:07;5.10;;;3.00;;
38435;SDS011;24220;48.168;14.024;2023-04-25T06:33:34;4.00;;;3.15;;
38435;SDS011;24220;48.168;14.024;2023-04-25T06:36:04;5.10;;;3.40;;
38435;SDS011;24220;48.168;14.024;2023-04-25T06:38:33;6.35;;;3.00;;
38435;SDS011;24220;48.168;14.024;2023-04-25T06:41:02;4.00;;;2.70;;
38435;SDS011;24220;48.168;14.024;2023-04-25T06:43:29;4.47;;;2.40;;
38435;SDS011;24220;48.168;14.024;2023-04-25T06:45:59;3.47;;;2.20;;
38435;SDS011;24220;48.168;14.024;2023-04-25T06:48:27;2.72;;;2.20;;
38435;SDS011;24220;48.168;14.024;2023-04-25T06:50:54;2.40;;;2.00;;
38435;SDS011;24220;48.168;14.024;2023-04-25T06:53:23;2.53;;;2.22;;
38435;SDS011;24220;48.168;14.024;2023-04-25T06:55:50;2.60;;;2.28;;
38435;SDS011;24220;48.168;14.024;2023-04-25T06:58:18;2.92;;;2.33;;
38435;SDS011;24220;48.168;14.024;2023-04-25T07:00:45;3.90;;;2.60;;
38435;SDS011;24220;48.168;14.024;2023-04-25T07:03:13;2.92;;;2.03;;
38435;SDS011;24220;48.168;14.024;2023-04-25T07:05:40;3.35;;;2.60;;
38435;SDS011;24220;48.168;14.024;2023-04-25T07:08:08;3.30;;;2.25;;
38435;SDS011;24220;48.168;14.024;2023-04-25T07:10:35;4.07;;;2.13;;
38435;SDS011;24220;48.168;14.024;2023-04-25T07:13:03;4.35;;;2.22;;
38435;SDS011;24220;48.168;14.024;2023-04-25T07:15:30;4.05;;;2.00;;
38435;SDS011;24220;48.168;14.024;2023-04-25T07:17:57;4.55;;;1.90;;
38435;SDS011;24220;48.168;14.024;2023-04-25T07:20:25;3.45;;;2.22;;
38435;SDS011;24220;48.168;14.024;2023-04-25T07:22:54;3.03;;;2.20;;
38435;SDS011;24220;48.168;14.024;2023-04-25T07:25:24;3.55;;;2.22;;
38435;SDS011;24220;48.168;14.024;2023-04-25T07:27:56;2.83;;;2.20;;
38435;SDS011;24220;48.168;14.024;2023-04-25T07:30:23;4.63;;;3.85;;
38435;SDS011;24220;48.168;14.024;2023-04-25T07:32:51;2.60;;;2.40;;
38435;SDS011;24220;48.168;14.024;2023-04-25T07:35:18;2.97;;;2.58;;
38435;SDS011;24220;48.168;14.024;2023-04-25T07:37:45;4.55;;;3.25;;
38435;SDS011;24220;48.168;14.024;2023-04-25T07:40:13;4.00;;;2.58;;
38435;SDS011;24220;48.168;14.024;2023-04-25T07:42:43;2.67;;;2.28;;
38435;SDS011;24220;48.168;14.024;2023-04-25T07:45:12;3.55;;;2.40;;
38435;SDS011;24220;48.168;14.024;2023-04-25T07:47:42;2.90;;;2.60;;
38435;SDS011;24220;48.168;14.024;2023-04-25T07:50:10;3.50;;;2.38;;
38435;SDS011;24220;48.168;14.024;2023-04-25T07:52:37;4.28;;;2.47;;
38435;SDS011;24220;48.168;14.024;2023-04-25T07:55:05;3.65;;;2.35;;
38435;SDS011;24220;48.168;14.024;2023-04-25T07:57:32;2.75;;;2.10;;
38435;SDS011;24220;48.168;14.024;2023-04-25T07:59:59;3.92;;;2.30;;
38435;SDS011;24220;48.168;14.024;2023-04-25T08:02:27;4.53;;;2.30;;
38435;SDS011;24220;48.168;14.024;2023-04-25T08:04:55;3.72;;;2.08;;
38435;SDS011;24220;48.168;14.024;2023-04-25T08:07:25;6.10;;;3.60;;
38435;SDS011;24220;48.168;14.024;2023-04-25T08:09:55;7.55;;;3.40;;
38435;SDS011;24220;48.168;14.024;2023-04-25T08:12:22;2.50;;;2.10;;
38435;SDS011;24220;48.168;14.024;2023-04-25T08:14:50;4.47;;;2.10;;
38435;SDS011;24220;48.168;14.024;2023-04-25T08:17:17;3.95;;;1.90;;
38435;SDS011;24220;48.168;14.024;2023-04-25T08:19:47;3.05;;;2.25;;
38435;SDS011;24220;48.168;14.024;2023-04-25T08:22:16;3.85;;;2.67;;
38435;SDS011;24220;48.168;14.024;2023-04-25T08:24:44;9.80;;;5.25;;
38435;SDS011;24220;48.168;14.024;2023-04-25T08:27:11;4.90;;;3.45;;
38435;SDS011;24220;48.168;14.024;2023-04-25T08:29:41;4.47;;;2.75;;
38435;SDS011;24220;48.168;14.024;2023-04-25T08:32:11;6.22;;;5.25;;
38435;SDS011;24220;48.168;14.024;2023-04-25T08:34:38;3.00;;;2.13;;
38435;SDS011;24220;48.168;14.024;2023-04-25T08:37:08;2.80;;;1.67;;
38435;SDS011;24220;48.168;14.024;2023-04-25T08:39:36;3.50;;;1.77;;
38435;SDS011;24220;48.168;14.024;2023-04-25T08:42:05;2.78;;;2.20;;
38435;SDS011;24220;48.168;14.024;2023-04-25T08:44:37;2.15;;;1.60;;
38435;SDS011;24220;48.168;14.024;2023-04-25T08:47:05;9.32;;;3.83;;
38435;SDS011;24220;48.168;14.024;2023-04-25T08:49:35;3.63;;;2.47;;
38435;SDS011;24220;48.168;14.024;2023-04-25T08:52:04;5.40;;;2.70;;
38435;SDS011;24220;48.168;14.024;2023-04-25T08:54:34;4.85;;;2.35;;
38435;SDS011;24220;48.168;14.024;2023-04-25T08:57:05;2.60;;;2.05;;
38435;SDS011;24220;48.168;14.024;2023-04-25T08:59:33;2.42;;;2.00;;
38435;SDS011;24220;48.168;14.024;2023-04-25T09:02:03;3.60;;;2.60;;
38435;SDS011;24220;48.168;14.024;2023-04-25T09:04:33;4.93;;;2.25;;
38435;SDS011;24220;48.168;14.024;2023-04-25T09:07:00;3.95;;;2.35;;
38435;SDS011;24220;48.168;14.024;2023-04-25T09:09:29;2.75;;;2.30;;
38435;SDS011;24220;48.168;14.024;2023-04-25T09:11:58;5.03;;;2.80;;
38435;SDS011;24220;48.168;14.024;2023-04-25T09:14:28;3.22;;;2.20;;
38435;SDS011;24220;48.168;14.024;2023-04-25T09:19:23;4.32;;;2.78;;
38435;SDS011;24220;48.168;14.024;2023-04-25T09:22:07;3.88;;;2.22;;
38435;SDS011;24220;48.168;14.024;2023-04-25T09:27:08;2.47;;;1.70;;
38435;SDS011;24220;48.168;14.024;2023-04-25T09:29:38;3.53;;;2.20;;
38435;SDS011;24220;48.168;14.024;2023-04-25T09:32:10;2.40;;;1.73;;
38435;SDS011;24220;48.168;14.024;2023-04-25T09:34:43;4.68;;;1.85;;
38435;SDS011;24220;48.168;14.024;2023-04-25T09:37:25;1.85;;;1.75;;
38435;SDS011;24220;48.168;14.024;2023-04-25T09:39:59;3.00;;;1.52;;
38435;SDS011;24220;48.168;14.024;2023-04-25T09:42:29;2.50;;;1.80;;
38435;SDS011;24220;48.168;14.024;2023-04-25T09:44:58;2.88;;;1.98;;
38435;SDS011;24220;48.168;14.024;2023-04-25T09:47:28;3.88;;;1.90;;
38435;SDS011;24220;48.168;14.024;2023-04-25T09:49:56;4.03;;;2.22;;
38435;SDS011;24220;48.168;14.024;2023-04-25T09:52:24;2.45;;;1.70;;
38435;SDS011;24220;48.168;14.024;2023-04-25T09:54:52;3.33;;;1.77;;
38435;SDS011;24220;48.168;14.024;2023-04-25T09:57:20;3.30;;;1.63;;
38435;SDS011;24220;48.168;14.024;2023-04-25T09:59:49;2.30;;;1.50;;
38435;SDS011;24220;48.168;14.024;2023-04-25T10:02:23;2.90;;;1.55;;
38435;SDS011;24220;48.168;14.024;2023-04-25T10:04:53;3.50;;;1.50;;
38435;SDS011;24220;48.168;14.024;2023-04-25T10:07:23;2.63;;;1.40;;
38435;SDS011;24220;48.168;14.024;2023-04-25T10:10:00;1.63;;;1.37;;
38435;SDS011;24220;48.168;14.024;2023-04-25T10:12:30;2.03;;;1.00;;
38435;SDS011;24220;48.168;14.024;2023-04-25T10:14:59;2.00;;;1.40;;
38435;SDS011;24220;48.168;14.024;2023-04-25T10:17:29;1.65;;;1.10;;
38435;SDS011;24220;48.168;14.024;2023-04-25T10:20:02;1.95;;;1.50;;
38435;SDS011;24220;48.168;14.024;2023-04-25T10:22:32;2.65;;;1.60;;
38435;SDS011;24220;48.168;14.024;2023-04-25T10:25:04;2.53;;;1.30;;
38435;SDS011;24220;48.168;14.024;2023-04-25T10:27:33;2.58;;;1.33;;
38435;SDS011;24220;48.168;14.024;2023-04-25T10:32:36;2.33;;;1.27;;
38435;SDS011;24220;48.168;14.024;2023-04-25T10:35:37;1.63;;;1.30;;
38435;SDS011;24220;48.168;14.024;2023-04-25T10:40:32;3.42;;;1.40;;
38435;SDS011;24220;48.168;14.024;2023-04-25T10:43:49;2.50;;;1.40;;
38435;SDS011;24220;48.168;14.024;2023-04-25T10:46:24;1.73;;;1.40;;
38435;SDS011;24220;48.168;14.024;2023-04-25T10:48:54;3.08;;;1.70;;
38435;SDS011;24220;48.168;14.024;2023-04-25T10:54:06;6.00;;;2.00;;
38435;SDS011;24220;48.168;14.024;2023-04-25T10:56:38;4.10;;;2.00;;
38435;SDS011;24220;48.168;14.024;2023-04-25T10:59:26;5.10;;;2.20;;
38435;SDS011;24220;48.168;14.024;2023-04-25T11:01:55;2.53;;;1.70;;
38435;SDS011;24220;48.168;14.024;2023-04-25T11:09:33;3.53;;;2.28;;
38435;SDS011;24220;48.168;14.024;2023-04-25T11:12:01;8.10;;;3.20;;
38435;SDS011;24220;48.168;14.024;2023-04-25T11:14:31;7.72;;;3.40;;
38435;SDS011;24220;48.168;14.024;2023-04-25T11:16:59;3.72;;;2.83;;
38435;SDS011;24220;48.168;14.024;2023-04-25T11:19:28;3.70;;;3.05;;
38435;SDS011;24220;48.168;14.024;2023-04-25T11:21:56;5.13;;;2.70;;
38435;SDS011;24220;48.168;14.024;2023-04-25T11:24:28;2.47;;;1.70;;
38435;SDS011;24220;48.168;14.024;2023-04-25T11:27:00;5.47;;;2.75;;
38435;SDS011;24220;48.168;14.024;2023-04-25T11:29:33;3.90;;;2.38;;
38435;SDS011;24220;48.168;14.024;2023-04-25T11:32:01;5.68;;;3.03;;
38435;SDS011;24220;48.168;14.024;2023-04-25T11:34:30;3.05;;;2.08;;
38435;SDS011;24220;48.168;14.024;2023-04-25T11:37:01;3.13;;;2.08;;
38435;SDS011;24220;48.168;14.024;2023-04-25T11:39:29;3.10;;;1.90;;
38435;SDS011;24220;48.168;14.024;2023-04-25T11:41:57;1.70;;;1.60;;
38435;SDS011;24220;48.168;14.024;2023-04-25T11:44:26;2.60;;;1.80;;
38435;SDS011;24220;48.168;14.024;2023-04-25T11:46:55;3.20;;;1.83;;
38435;SDS011;24220;48.168;14.024;2023-04-25T11:49:24;1.67;;;1.40;;
38435;SDS011;24220;48.168;14.024;2023-04-25T11:51:58;2.88;;;1.90;;
38435;SDS011;24220;48.168;14.024;2023-04-25T11:54:25;2.35;;;1.70;;
38435;SDS011;24220;48.168;14.024;2023-04-25T11:56:53;2.60;;;1.70;;
38435;SDS011;24220;48.168;14.024;2023-04-25T11:59:23;2.88;;;1.80;;
38435;SDS011;24220;48.168;14.024;2023-04-25T12:09:29;2.83;;;1.80;;
38435;SDS011;24220;48.168;14.024;2023-04-25T12:11:58;4.03;;;1.80;;
38435;SDS011;24220;48.168;14.024;2023-04-25T12:14:31;2.88;;;1.60;;
38435;SDS011;24220;48.168;14.024;2023-04-25T12:17:01;4.22;;;2.15;;
38435;SDS011;24220;48.168;14.024;2023-04-25T12:19:35;2.80;;;1.52;;
38435;SDS011;24220;48.168;14.024;2023-04-25T12:22:22;1.33;;;1.10;;
38435;SDS011;24220;48.168;14.024;2023-04-25T12:24:51;1.90;;;1.30;;
38435;SDS011;24220;48.168;14.024;2023-04-25T12:27:20;2.70;;;1.45;;
38435;SDS011;24220;48.168;14.024;2023-04-25T12:29:54;1.25;;;1.05;;
38435;SDS011;24220;48.168;14.024;2023-04-25T12:32:23;1.52;;;0.80;;
38435;SDS011;24220;48.168;14.024;2023-04-25T12:34:50;1.80;;;0.80;;
38435;SDS011;24220;48.168;14.024;2023-04-25T12:37:18;1.05;;;1.00;;
38435;SDS011;24220;48.168;14.024;2023-04-25T12:39:50;1.48;;;0.70;;
38435;SDS011;24220;48.168;14.024;2023-04-25T12:42:17;1.00;;;0.70;;
38435;SDS011;24220;48.168;14.024;2023-04-25T12:44:45;1.65;;;0.90;;
38435;SDS011;24220;48.168;14.024;2023-04-25T12:47:13;1.27;;;0.80;;
38435;SDS011;24220;48.168;14.024;2023-04-25T12:49:41;1.27;;;0.80;;
38435;SDS011;24220;48.168;14.024;2023-04-25T12:52:08;2.40;;;0.82;;
38435;SDS011;24220;48.168;14.024;2023-04-25T12:54:36;1.25;;;0.98;;
38435;SDS011;24220;48.168;14.024;2023-04-25T12:57:03;0.80;;;0.80;;
38435;SDS011;24220;48.168;14.024;2023-04-25T12:59:31;2.63;;;1.20;;
38435;SDS011;24220;48.168;14.024;2023-04-25T13:01:58;1.10;;;1.00;;
38435;SDS011;24220;48.168;14.024;2023-04-25T13:04:31;1.83;;;1.08;;
38435;SDS011;24220;48.168;14.024;2023-04-25T13:06:58;3.35;;;2.15;;
38435;SDS011;24220;48.168;14.024;2023-04-25T13:09:25;7.10;;;3.72;;
38435;SDS011;24220;48.168;14.024;2023-04-25T13:11:53;15.18;;;7.85;;
38435;SDS011;24220;48.168;14.024;2023-04-25T13:14:23;2.60;;;2.30;;
38435;SDS011;24220;48.168;14.024;2023-04-25T13:16:51;1.90;;;1.38;;
38435;SDS011;24220;48.168;14.024;2023-04-25T13:19:18;1.45;;;1.35;;
38435;SDS011;24220;48.168;14.024;2023-04-25T13:21:46;3.13;;;2.10;;
38435;SDS011;24220;48.168;14.024;2023-04-25T13:24:13;1.60;;;1.50;;
38435;SDS011;24220;48.168;14.024;2023-04-25T13:26:43;2.53;;;1.42;;
38435;SDS011;24220;48.168;14.024;2023-04-25T13:29:10;2.35;;;1.90;;
38435;SDS011;24220;48.168;14.024;2023-04-25T13:31:37;3.20;;;1.80;;
38435;SDS011;24220;48.168;14.024;2023-04-25T13:34:05;1.75;;;1.40;;
38435;SDS011;24220;48.168;14.024;2023-04-25T13:36:32;2.55;;;1.27;;
38435;SDS011;24220;48.168;14.024;2023-04-25T13:39:00;1.40;;;1.30;;
38435;SDS011;24220;48.168;14.024;2023-04-25T13:41:33;1.83;;;1.30;;
38435;SDS011;24220;48.168;14.024;2023-04-25T13:44:00;1.20;;;1.10;;
38435;SDS011;24220;48.168;14.024;2023-04-25T13:46:30;1.40;;;1.30;;
38435;SDS011;24220;48.168;14.024;2023-04-25T13:49:12;2.45;;;1.42;;
38435;SDS011;24220;48.168;14.024;2023-04-25T13:51:40;2.47;;;1.70;;
38435;SDS011;24220;48.168;14.024;2023-04-25T13:54:09;2.72;;;1.40;;
38435;SDS011;24220;48.168;14.024;2023-04-25T13:56:39;2.53;;;1.30;;
38435;SDS011;24220;48.168;14.024;2023-04-25T13:59:09;2.45;;;1.50;;
38435;SDS011;24220;48.168;14.024;2023-04-25T14:01:37;1.92;;;1.58;;
38435;SDS011;24220;48.168;14.024;2023-04-25T14:04:04;1.83;;;1.70;;
38435;SDS011;24220;48.168;14.024;2023-04-25T14:06:34;2.63;;;1.88;;
38435;SDS011;24220;48.168;14.024;2023-04-25T14:09:02;3.08;;;2.50;;
38435;SDS011;24220;48.168;14.024;2023-04-25T14:11:33;2.40;;;1.80;;
38435;SDS011;24220;48.168;14.024;2023-04-25T14:14:01;1.77;;;1.55;;
38435;SDS011;24220;48.168;14.024;2023-04-25T14:16:30;1.60;;;1.50;;
38435;SDS011;24220;48.168;14.024;2023-04-25T14:18:58;1.83;;;1.60;;
38435;SDS011;24220;48.168;14.024;2023-04-25T14:21:28;1.67;;;1.58;;
38435;SDS011;24220;48.168;14.024;2023-04-25T14:23:58;1.60;;;1.48;;
38435;SDS011;24220;48.168;14.024;2023-04-25T14:26:25;1.55;;;1.42;;
38435;SDS011;24220;48.168;14.024;2023-04-25T14:28:53;1.92;;;1.70;;
38435;SDS011;24220;48.168;14.024;2023-04-25T14:31:22;3.00;;;1.85;;
38435;SDS011;24220;48.168;14.024;2023-04-25T14:33:50;1.98;;;1.80;;
38435;SDS011;24220;48.168;14.024;2023-04-25T14:36:18;2.75;;;2.10;;
38435;SDS011;24220;48.168;14.024;2023-04-25T14:38:47;2.28;;;1.90;;
38435;SDS011;24220;48.168;14.024;2023-04-25T14:41:15;2.83;;;1.63;;
38435;SDS011;24220;48.168;14.024;2023-04-25T14:43:42;2.03;;;1.70;;
38435;SDS011;24220;48.168;14.024;2023-04-25T14:46:09;1.83;;;1.70;;
38435;SDS011;24220;48.168;14.024;2023-04-25T14:48:37;2.25;;;1.95;;
38435;SDS011;24220;48.168;14.024;2023-04-25T14:51:05;1.92;;;1.60;;
38435;SDS011;24220;48.168;14.024;2023-04-25T14:53:33;1.90;;;1.60;;
38435;SDS011;24220;48.168;14.024;2023-04-25T14:56:00;1.67;;;1.55;;
38435;SDS011;24220;48.168;14.024;2023-04-25T14:58:30;2.60;;;1.45;;
38435;SDS011;24220;48.168;14.024;2023-04-25T15:00:58;1.90;;;1.38;;
38435;SDS011;24220;48.168;14.024;2023-04-25T15:03:26;1.20;;;1.10;;
38435;SDS011;24220;48.168;14.024;2023-04-25T15:05:54;4.30;;;3.10;;
38435;SDS011;24220;48.168;14.024;2023-04-25T15:08:22;1.67;;;1.58;;
38435;SDS011;24220;48.168;14.024;2023-04-25T15:10:49;1.40;;;1.30;;
38435;SDS011;24220;48.168;14.024;2023-04-25T15:13:19;1.33;;;1.00;;
38435;SDS011;24220;48.168;14.024;2023-04-25T15:15:47;0.88;;;0.80;;
38435;SDS011;24220;48.168;14.024;2023-04-25T15:18:19;1.15;;;1.05;;
38435;SDS011;24220;48.168;14.024;2023-04-25T15:20:50;1.10;;;1.00;;
38435;SDS011;24220;48.168;14.024;2023-04-25T15:23:18;1.20;;;1.10;;
38435;SDS011;24220;48.168;14.024;2023-04-25T15:25:49;1.88;;;1.17;;